createdAt,value
2022-10-20T00:00:27.311Z,17.25
2022-10-20T00:05:28.852Z,17.77
2022-10-20T00:10:31.345Z,18.00
2022-10-20T00:15:32.973Z,16.90
2022-10-20T00:20:34.514Z,15.88
2022-10-20T00:25:36.096Z,19.08
2022-10-20T00:30:39.139Z,16.60
2022-10-20T00:35:40.725Z,18.23
2022-10-20T00:40:42.316Z,20.25
2022-10-20T00:45:50.222Z,23.50
2022-10-20T00:50:54.886Z,24.20
2022-10-20T00:55:58.359Z,21.08
2022-10-20T01:01:00.025Z,23.90
2022-10-20T01:06:01.598Z,22.95
2022-10-20T01:11:12.277Z,21.52
2022-10-20T01:16:26.071Z,19.80
2022-10-20T01:21:55.451Z,22.33
2022-10-20T01:27:20.001Z,25.30
2022-10-20T01:32:27.730Z,29.05
2022-10-20T01:37:48.736Z,23.42
2022-10-20T01:42:54.087Z,20.95
2022-10-20T01:47:59.985Z,26.58
2022-10-20T01:53:01.817Z,25.02
2022-10-20T01:58:25.242Z,27.77
2022-10-20T02:03:52.171Z,25.05
2022-10-20T02:09:24.446Z,25.17
2022-10-20T02:14:26.788Z,24.02
2022-10-20T02:19:33.515Z,26.88
2022-10-20T02:24:37.948Z,26.67
2022-10-20T02:29:44.621Z,30.25
2022-10-20T02:34:46.157Z,25.35
2022-10-20T02:39:47.757Z,27.52
2022-10-20T02:44:51.442Z,23.67
2022-10-20T02:49:53.088Z,27.52
2022-10-20T02:54:54.796Z,22.55
2022-10-20T02:59:56.594Z,24.35
2022-10-20T03:04:58.152Z,20.15
2022-10-20T03:09:59.753Z,23.20
2022-10-20T03:15:01.291Z,23.90
2022-10-20T03:20:03.684Z,21.77
2022-10-20T03:25:05.572Z,27.08
2022-10-20T03:30:07.918Z,30.55
2022-10-20T03:35:09.741Z,29.95
2022-10-20T03:40:11.514Z,35.25
2022-10-20T03:45:15.009Z,30.50
2022-10-20T03:50:19.461Z,30.40
2022-10-20T03:55:21.036Z,34.22
2022-10-20T04:00:22.573Z,42.95
2022-10-20T04:05:24.127Z,38.15
2022-10-20T04:10:25.743Z,51.10
2022-10-20T04:15:27.361Z,100.85
2022-10-20T04:20:28.928Z,59.28
2022-10-20T04:25:30.451Z,54.05
2022-10-20T04:30:31.959Z,46.90
2022-10-20T04:35:33.664Z,49.10
2022-10-20T04:40:35.272Z,52.40
2022-10-20T04:45:36.991Z,42.10
2022-10-20T04:50:38.555Z,49.17
2022-10-20T04:55:43.075Z,49.13
2022-10-20T05:00:44.593Z,46.85
2022-10-20T05:05:47.337Z,43.50
2022-10-20T05:10:48.876Z,71.00
2022-10-20T05:15:52.916Z,243.88
2022-10-20T05:21:08.287Z,228.73
2022-10-20T05:26:17.027Z,239.35
2022-10-20T05:31:21.249Z,160.15
2022-10-20T05:36:26.732Z,106.93
2022-10-20T05:41:33.383Z,61.88
2022-10-20T05:46:41.435Z,69.00
2022-10-20T05:51:47.235Z,50.42
2022-10-20T05:56:51.294Z,60.20
2022-10-20T06:02:00.264Z,63.78
2022-10-20T06:07:02.107Z,61.45
2022-10-20T06:17:10.134Z,71.68
2022-10-20T06:22:28.531Z,223.23
2022-10-20T06:27:39.246Z,64.85
2022-10-20T06:32:42.973Z,72.32
2022-10-20T06:43:05.361Z,63.80
2022-10-20T06:48:07.065Z,58.40
2022-10-20T06:53:08.586Z,52.95
2022-10-20T06:58:10.099Z,95.25
2022-10-20T07:03:11.662Z,50.92
2022-10-20T07:08:13.184Z,42.95
2022-10-20T07:13:14.800Z,51.60
2022-10-20T07:18:16.320Z,34.22
2022-10-20T07:23:18.281Z,45.85
2022-10-20T07:28:21.789Z,37.28
2022-10-20T07:33:23.403Z,24.65
2022-10-20T07:38:25.149Z,28.45
2022-10-20T07:43:26.673Z,25.67
2022-10-20T07:48:28.251Z,23.40
2022-10-20T07:53:29.788Z,23.40
2022-10-20T07:58:31.339Z,23.75
2022-10-20T08:03:33.829Z,24.85
2022-10-20T08:08:35.490Z,22.52
2022-10-20T08:13:39.513Z,23.17
2022-10-20T08:23:58.208Z,21.23
2022-10-20T08:28:59.800Z,18.50
2022-10-20T08:34:01.480Z,18.27
2022-10-20T08:39:06.045Z,18.30
2022-10-20T08:44:08.347Z,21.05
2022-10-20T08:49:19.989Z,21.02
2022-10-20T08:54:22.604Z,21.13
2022-10-20T08:59:34.238Z,20.63
2022-10-20T09:09:50.984Z,19.88
2022-10-20T09:14:52.583Z,23.38
2022-10-20T09:19:57.444Z,24.98
2022-10-20T09:24:59.335Z,22.10
2022-10-20T09:30:16.465Z,24.83
2022-10-20T09:35:24.573Z,26.45
2022-10-20T09:40:27.128Z,22.88
2022-10-20T09:45:31.593Z,22.33
2022-10-20T09:50:39.379Z,21.00
2022-10-20T09:55:49.686Z,20.33
2022-10-20T10:00:58.201Z,21.42
2022-10-20T10:06:00.725Z,19.42
2022-10-20T10:11:18.652Z,19.48
2022-10-20T10:16:21.908Z,15.48
2022-10-20T10:21:23.631Z,15.35
2022-10-20T10:26:45.446Z,17.92
2022-10-20T10:32:01.618Z,17.13
2022-10-20T10:37:04.805Z,17.90
2022-10-20T10:42:20.699Z,17.17
2022-10-20T10:47:25.251Z,19.98
2022-10-20T10:52:56.629Z,22.38
2022-10-20T10:58:33.080Z,19.50
2022-10-20T11:03:46.700Z,19.30
2022-10-20T11:08:53.693Z,15.25
2022-10-20T11:14:04.078Z,16.88
2022-10-20T11:19:16.807Z,22.30
2022-10-20T11:24:24.323Z,17.08
2022-10-20T11:29:41.810Z,16.50
2022-10-20T11:35:20.785Z,15.80
2022-10-20T11:40:32.472Z,16.55
2022-10-20T11:45:33.994Z,16.83
2022-10-20T11:50:36.157Z,14.10
2022-10-20T11:56:25.231Z,15.82
2022-10-20T12:02:19.107Z,13.20
2022-10-20T12:07:54.153Z,13.90
2022-10-20T12:13:47.950Z,14.57
2022-10-20T12:19:07.318Z,15.82
2022-10-20T12:24:38.930Z,16.65
2022-10-20T12:29:43.420Z,16.25
2022-10-20T12:34:45.027Z,17.48
2022-10-20T12:39:47.317Z,15.80
2022-10-20T12:44:50.243Z,22.17
2022-10-20T12:50:00.828Z,18.00
2022-10-20T12:55:23.262Z,14.80
2022-10-20T13:00:25.001Z,17.50
2022-10-20T13:05:45.318Z,17.95
2022-10-20T13:10:47.703Z,13.35
2022-10-20T13:15:53.520Z,16.30
2022-10-20T13:21:31.204Z,18.35
2022-10-20T13:26:46.769Z,17.02
2022-10-20T13:32:04.214Z,15.75
2022-10-20T13:37:13.807Z,19.73
2022-10-20T13:42:23.893Z,14.40
2022-10-20T13:48:00.443Z,12.20
2022-10-20T13:53:25.884Z,9.35
2022-10-20T13:58:27.784Z,12.65
2022-10-20T14:03:31.853Z,10.02
2022-10-20T14:08:43.822Z,12.77
2022-10-20T14:13:46.071Z,9.65
2022-10-20T14:19:05.316Z,14.63
2022-10-20T14:24:12.355Z,13.10
2022-10-20T14:29:17.153Z,11.98
2022-10-20T14:34:25.600Z,13.65
2022-10-20T14:39:35.656Z,13.48
2022-10-20T14:44:37.253Z,11.10
2022-10-20T14:49:42.108Z,14.40
2022-10-20T14:54:45.381Z,16.52
2022-10-20T14:59:50.949Z,15.68
2022-10-20T15:04:52.960Z,14.15
2022-10-20T15:10:05.644Z,14.13
2022-10-20T15:15:20.831Z,14.10
2022-10-20T15:20:34.018Z,20.58
2022-10-20T15:26:06.348Z,14.55
2022-10-20T15:31:19.848Z,10.70
2022-10-20T15:36:29.548Z,11.65
2022-10-20T15:41:33.545Z,14.35
2022-10-20T15:46:35.146Z,13.77
2022-10-20T15:51:40.027Z,13.85
2022-10-20T15:56:42.011Z,14.30
2022-10-20T16:01:43.759Z,18.17
2022-10-20T16:06:45.532Z,15.43
2022-10-20T16:11:47.110Z,16.25
2022-10-20T16:16:48.639Z,15.98
2022-10-20T16:21:50.174Z,16.52
2022-10-20T16:26:52.768Z,17.70
2022-10-20T16:31:54.444Z,17.45
2022-10-20T16:36:56.288Z,24.15
2022-10-20T16:41:57.955Z,24.23
2022-10-20T16:46:59.551Z,25.70
2022-10-20T16:52:01.624Z,25.08
2022-10-20T16:57:03.745Z,25.58
2022-10-20T17:02:05.862Z,30.77
2022-10-20T17:07:08.652Z,32.10
2022-10-20T17:12:10.226Z,33.13
2022-10-20T17:17:11.804Z,33.63
2022-10-20T17:22:13.348Z,29.60
2022-10-20T17:27:14.955Z,27.13
2022-10-20T17:32:18.176Z,30.10
2022-10-20T17:37:19.960Z,36.42
2022-10-20T17:42:21.493Z,38.75
2022-10-20T17:47:23.095Z,41.83
2022-10-20T17:52:24.614Z,37.13
2022-10-20T17:57:26.183Z,36.05
2022-10-20T18:02:27.841Z,40.42
2022-10-20T18:07:29.527Z,37.35
2022-10-20T18:12:31.107Z,40.95
2022-10-20T18:17:32.662Z,31.90
2022-10-20T18:22:34.202Z,30.58
2022-10-20T18:27:35.770Z,27.58
2022-10-20T18:32:37.727Z,30.67
2022-10-20T18:37:39.698Z,28.20
2022-10-20T18:42:41.550Z,25.33
2022-10-20T18:47:45.044Z,26.02
2022-10-20T18:52:46.623Z,20.98
2022-10-20T18:57:48.165Z,22.90
2022-10-20T19:02:54.808Z,24.15
2022-10-20T19:07:58.469Z,22.85
2022-10-20T19:13:00.036Z,20.58
2022-10-20T19:18:01.847Z,23.65
2022-10-20T19:23:03.577Z,21.30
2022-10-20T19:28:05.315Z,21.63
2022-10-20T19:33:06.942Z,27.67
2022-10-20T19:38:08.556Z,29.45
2022-10-20T19:43:11.087Z,25.90
2022-10-20T19:48:12.650Z,29.33
2022-10-20T19:53:14.200Z,36.22
2022-10-20T19:58:17.972Z,31.05
2022-10-20T20:03:19.573Z,32.58
2022-10-20T20:08:21.120Z,33.28
2022-10-20T20:13:23.737Z,27.83
2022-10-20T20:18:25.339Z,28.52
2022-10-20T20:23:40.775Z,23.77
2022-10-20T20:28:48.541Z,23.88
2022-10-20T20:33:50.265Z,23.65
2022-10-20T20:38:53.795Z,29.65
2022-10-20T20:43:58.750Z,28.33
2022-10-20T20:49:01.277Z,34.05
2022-10-20T20:54:03.549Z,32.47
2022-10-20T20:59:05.377Z,34.20
2022-10-20T21:04:11.340Z,32.05
2022-10-20T21:09:12.997Z,41.35
2022-10-20T21:14:14.701Z,33.33
2022-10-20T21:19:16.497Z,33.58
2022-10-20T21:24:18.511Z,27.27
2022-10-20T21:29:20.088Z,35.58
2022-10-20T21:34:21.772Z,31.83
2022-10-20T21:39:23.465Z,32.67
2022-10-20T21:44:25.079Z,40.15
2022-10-20T21:49:29.083Z,27.52
2022-10-20T21:54:30.814Z,23.30
2022-10-20T21:59:32.385Z,22.05
2022-10-20T22:04:33.959Z,23.75
2022-10-20T22:09:35.564Z,23.27
2022-10-20T22:14:37.210Z,20.52
2022-10-20T22:19:38.749Z,17.25
2022-10-20T22:24:40.505Z,17.98
2022-10-20T22:29:42.044Z,16.58
2022-10-20T22:34:43.583Z,17.45
2022-10-20T22:39:45.116Z,19.67
2022-10-20T22:44:47.864Z,18.63
2022-10-20T22:49:49.401Z,18.35
2022-10-20T22:54:51.181Z,15.20
2022-10-20T22:59:52.782Z,18.48
2022-10-20T23:04:54.328Z,19.73
2022-10-20T23:09:55.893Z,17.48
2022-10-20T23:14:57.494Z,23.70
2022-10-20T23:19:59.097Z,17.75
2022-10-20T23:25:02.205Z,22.40
2022-10-20T23:30:04.142Z,20.45
2022-10-20T23:35:06.202Z,25.52
2022-10-20T23:40:08.191Z,22.02
2022-10-20T23:45:10.224Z,22.27
2022-10-20T23:50:11.995Z,26.67
2022-10-20T23:55:15.566Z,21.58
